createdAt,value
2023-02-22T00:01:38.053Z,101230.66
2023-02-22T00:04:06.815Z,101223.91
2023-02-22T00:06:39.202Z,101226.59
2023-02-22T00:09:06.957Z,101220.97
2023-02-22T00:11:35.514Z,101226.03
2023-02-22T00:14:02.476Z,101225.50
2023-02-22T00:16:30.813Z,101213.53
2023-02-22T00:18:57.511Z,101216.28
2023-02-22T00:21:23.972Z,101215.81
2023-02-22T00:23:50.500Z,101211.03
2023-02-22T00:26:20.141Z,101204.28
2023-02-22T00:28:48.891Z,101197.53
2023-02-22T00:31:16.144Z,101199.81
2023-02-22T00:33:43.373Z,101202.84
2023-02-22T00:36:12.647Z,101194.84
2023-02-22T00:38:40.241Z,101200.25
2023-02-22T00:41:07.210Z,101203.13
2023-02-22T00:43:34.215Z,101200.94
2023-02-22T00:46:01.088Z,101205.47
2023-02-22T00:48:28.325Z,101203.81
2023-02-22T00:50:57.701Z,101196.34
2023-02-22T00:53:25.630Z,101197.16
2023-02-22T00:55:53.119Z,101198.66
2023-02-22T00:58:20.592Z,101196.22
2023-02-22T01:00:47.774Z,101199.72
2023-02-22T01:03:18.000Z,101199.28
2023-02-22T01:05:45.269Z,101182.50
2023-02-22T01:08:14.185Z,101186.41
2023-02-22T01:10:41.075Z,101185.56
2023-02-22T01:13:09.647Z,101182.34
2023-02-22T01:15:39.312Z,101172.47
2023-02-22T01:18:06.684Z,101171.53
2023-02-22T01:20:33.757Z,101170.31
2023-02-22T01:23:03.579Z,101170.94
2023-02-22T01:25:31.869Z,101164.47
2023-02-22T01:28:00.289Z,101177.78
2023-02-22T01:30:30.028Z,101164.72
2023-02-22T01:32:56.770Z,101167.47
2023-02-22T01:35:27.847Z,101165.53
2023-02-22T01:37:54.898Z,101163.59
2023-02-22T01:40:28.584Z,101155.75
2023-02-22T01:42:59.784Z,101160.13
2023-02-22T01:45:35.256Z,101159.75
2023-02-22T01:48:08.730Z,101153.56
2023-02-22T01:50:44.417Z,101147.28
2023-02-22T01:53:14.969Z,101165.16
2023-02-22T01:55:42.482Z,101164.06
2023-02-22T01:58:10.140Z,101161.75
2023-02-22T02:00:36.801Z,101158.25
2023-02-22T02:03:09.806Z,101167.44
2023-02-22T02:05:37.871Z,101153.31
2023-02-22T02:08:28.087Z,101162.06
2023-02-22T02:10:56.351Z,101148.34
2023-02-22T02:13:22.855Z,101158.28
2023-02-22T02:15:52.888Z,101157.09
2023-02-22T02:18:19.420Z,101148.72
2023-02-22T02:21:10.115Z,101138.53
2023-02-22T02:23:55.392Z,101134.78
2023-02-22T02:26:30.182Z,101133.66
2023-02-22T02:29:27.561Z,101130.97
2023-02-22T02:32:06.524Z,101125.53
2023-02-22T02:34:58.829Z,101119.22
2023-02-22T02:37:40.807Z,101123.97
2023-02-22T02:40:11.410Z,101118.47
2023-02-22T02:43:01.306Z,101113.41
2023-02-22T02:45:47.629Z,101109.84
2023-02-22T02:48:17.356Z,101110.66
2023-02-22T02:50:58.076Z,101105.53
2023-02-22T02:53:37.284Z,101104.81
2023-02-22T02:56:04.527Z,101101.25
2023-02-22T02:58:31.172Z,101103.63
2023-02-22T03:01:01.526Z,101096.47
2023-02-22T03:03:37.510Z,101096.09
2023-02-22T03:06:03.896Z,101092.59
2023-02-22T03:09:04.114Z,101088.28
2023-02-22T03:11:42.329Z,101085.94
2023-02-22T03:14:41.177Z,101078.47
2023-02-22T03:17:23.749Z,101075.41
2023-02-22T03:20:04.671Z,101080.19
2023-02-22T03:22:48.066Z,101073.94
2023-02-22T03:25:16.316Z,101082.22
2023-02-22T03:27:46.390Z,101078.66
2023-02-22T03:30:25.941Z,101076.28
2023-02-22T03:33:10.727Z,101058.16
2023-02-22T03:36:15.296Z,101062.09
2023-02-22T03:38:44.313Z,101051.81
2023-02-22T03:41:24.061Z,101044.72
2023-02-22T03:44:05.395Z,101047.09
2023-02-22T03:46:41.290Z,101052.25
2023-02-22T03:49:25.855Z,101047.47
2023-02-22T03:51:52.587Z,101047.03
2023-02-22T03:54:19.158Z,101049.44
2023-02-22T03:57:00.623Z,101050.16
2023-02-22T03:59:28.019Z,101045.50
2023-02-22T04:01:55.451Z,101058.50
2023-02-22T04:04:21.997Z,101054.09
2023-02-22T04:06:48.581Z,101052.91
2023-02-22T04:09:15.990Z,101061.56
2023-02-22T04:11:42.527Z,101051.66
2023-02-22T04:14:09.242Z,101052.81
2023-02-22T04:16:35.761Z,101045.25
2023-02-22T04:19:02.447Z,101058.59
2023-02-22T04:21:28.854Z,101046.66
2023-02-22T04:23:55.299Z,101050.97
2023-02-22T04:26:21.735Z,101062.41
2023-02-22T04:28:48.200Z,101057.28
2023-02-22T04:31:15.650Z,101062.41
2023-02-22T04:33:42.864Z,101064.06
2023-02-22T04:36:10.724Z,101061.72
2023-02-22T04:38:37.471Z,101059.34
2023-02-22T04:41:03.984Z,101053.81
2023-02-22T04:43:30.534Z,101056.91
2023-02-22T04:45:57.081Z,101047.72
2023-02-22T04:48:23.607Z,101051.59
2023-02-22T04:50:51.153Z,101047.25
2023-02-22T04:53:17.749Z,101052.75
2023-02-22T04:55:44.238Z,101048.09
2023-02-22T04:58:10.740Z,101042.97
2023-02-22T05:00:37.222Z,101038.28
2023-02-22T05:03:04.130Z,101030.03
2023-02-22T05:05:30.581Z,101028.63
2023-02-22T05:07:57.292Z,101037.78
2023-02-22T05:10:24.836Z,101033.03
2023-02-22T05:12:51.783Z,101024.38
2023-02-22T05:15:20.422Z,101027.59
2023-02-22T05:17:47.262Z,101021.56
2023-02-22T05:20:22.980Z,101029.03
2023-02-22T05:22:49.545Z,101019.06
2023-02-22T05:25:16.381Z,101017.47
2023-02-22T05:27:42.880Z,101019.38
2023-02-22T05:30:11.842Z,101011.41
2023-02-22T05:32:38.498Z,101010.28
2023-02-22T05:35:06.039Z,101008.56
2023-02-22T05:37:32.585Z,101011.31
2023-02-22T05:39:59.451Z,101004.94
2023-02-22T05:42:25.921Z,101012.09
2023-02-22T05:44:52.389Z,101005.00
2023-02-22T05:47:28.066Z,101008.44
2023-02-22T05:49:54.509Z,101006.13
2023-02-22T05:52:21.207Z,101001.03
2023-02-22T05:54:47.653Z,101005.06
2023-02-22T05:57:14.442Z,100999.19
2023-02-22T05:59:41.081Z,100998.81
2023-02-22T06:02:08.505Z,100998.50
2023-02-22T06:04:35.286Z,101000.53
2023-02-22T06:07:01.732Z,100999.00
2023-02-22T06:09:28.203Z,101000.63
2023-02-22T06:11:55.220Z,100995.84
2023-02-22T06:14:21.638Z,100999.41
2023-02-22T06:16:56.173Z,100991.13
2023-02-22T06:19:23.095Z,100992.16
2023-02-22T06:21:53.994Z,101002.38
2023-02-22T06:24:21.219Z,100994.78
2023-02-22T06:26:54.168Z,101001.47
2023-02-22T06:29:20.627Z,100993.22
2023-02-22T06:31:47.182Z,100995.22
2023-02-22T06:34:13.697Z,100992.88
2023-02-22T06:36:40.129Z,101005.19
2023-02-22T06:39:06.576Z,101002.88
2023-02-22T06:41:37.186Z,101005.25
2023-02-22T06:44:03.801Z,100994.16
2023-02-22T06:46:30.316Z,101002.13
2023-02-22T06:48:59.422Z,101000.00
2023-02-22T06:51:27.363Z,101003.53
2023-02-22T06:53:53.822Z,101004.78
2023-02-22T06:56:20.976Z,101004.38
2023-02-22T06:58:49.368Z,100997.34
2023-02-22T07:01:16.577Z,101002.03
2023-02-22T07:03:43.440Z,100998.94
2023-02-22T07:06:10.770Z,100989.84
2023-02-22T07:08:37.357Z,101004.06
2023-02-22T07:11:04.008Z,101002.53
2023-02-22T07:13:30.459Z,101003.75
2023-02-22T07:15:56.949Z,100997.88
2023-02-22T07:18:24.141Z,100994.72
2023-02-22T07:20:50.852Z,100988.78
2023-02-22T07:23:17.809Z,100995.44
2023-02-22T07:25:44.527Z,100992.69
2023-02-22T07:28:11.628Z,100991.97
2023-02-22T07:30:38.317Z,100986.75
2023-02-22T07:33:10.545Z,100995.84
2023-02-22T07:35:46.536Z,100998.19
2023-02-22T07:38:15.224Z,100998.13
2023-02-22T07:40:42.548Z,100989.84
2023-02-22T07:43:21.382Z,100999.00
2023-02-22T07:45:50.031Z,100989.50
2023-02-22T07:48:18.353Z,100997.47
2023-02-22T07:50:45.061Z,100989.63
2023-02-22T07:53:33.150Z,100992.69
2023-02-22T07:56:01.944Z,100992.75
2023-02-22T07:58:32.254Z,100985.59
2023-02-22T08:00:59.489Z,100973.72
2023-02-22T08:03:26.989Z,100983.25
2023-02-22T08:05:55.885Z,100975.13
2023-02-22T08:08:23.572Z,100975.53
2023-02-22T08:10:51.381Z,100975.94
2023-02-22T08:13:19.041Z,100981.78
2023-02-22T08:15:47.210Z,100970.81
2023-02-22T08:18:16.621Z,100976.13
2023-02-22T08:20:44.729Z,100972.25
2023-02-22T08:23:14.478Z,100970.78
2023-02-22T08:25:41.383Z,100968.44
2023-02-22T08:28:11.982Z,100968.88
2023-02-22T08:30:40.664Z,100973.72
2023-02-22T08:33:07.559Z,100966.66
2023-02-22T08:35:34.431Z,100958.03
2023-02-22T08:38:03.783Z,100963.16
2023-02-22T08:40:33.493Z,100969.44
2023-02-22T08:43:01.606Z,100967.19
2023-02-22T08:45:28.686Z,100946.34
2023-02-22T08:47:55.371Z,100958.25
2023-02-22T08:50:27.772Z,100959.59
2023-02-22T08:52:58.612Z,100957.34
2023-02-22T08:55:27.268Z,100955.03
2023-02-22T08:57:53.702Z,100953.13
2023-02-22T09:00:24.653Z,100957.56
2023-02-22T09:02:52.511Z,100950.94
2023-02-22T09:05:19.229Z,100936.03
2023-02-22T09:07:46.073Z,100953.47
2023-02-22T09:10:24.452Z,100933.78
2023-02-22T09:12:58.051Z,100939.47
2023-02-22T09:15:25.965Z,100928.88
2023-02-22T09:17:53.683Z,100931.69
2023-02-22T09:20:21.999Z,100929.41
2023-02-22T09:22:49.530Z,100929.47
2023-02-22T09:25:17.711Z,100925.13
2023-02-22T09:27:47.915Z,100926.38
2023-02-22T09:30:20.778Z,100915.78
2023-02-22T09:32:47.395Z,100915.84
2023-02-22T09:35:14.311Z,100916.69
2023-02-22T09:37:44.552Z,100909.22
2023-02-22T09:40:25.134Z,100913.59
2023-02-22T09:43:27.728Z,100913.25
2023-02-22T09:46:02.735Z,100906.19
2023-02-22T09:48:33.923Z,100906.28
2023-02-22T09:51:03.258Z,100901.97
2023-02-22T09:53:41.674Z,100910.31
2023-02-22T09:56:14.544Z,100910.31
2023-02-22T09:58:54.817Z,100900.47
2023-02-22T10:01:44.928Z,100898.91
2023-02-22T10:04:47.500Z,100898.13
2023-02-22T10:07:34.488Z,100894.19
2023-02-22T10:10:06.332Z,100893.00
2023-02-22T10:12:44.916Z,100890.19
2023-02-22T10:15:23.699Z,100902.88
2023-02-22T10:18:03.432Z,100902.47
2023-02-22T10:20:54.015Z,100887.78
2023-02-22T10:23:51.796Z,100893.31
2023-02-22T10:26:28.233Z,100894.09
2023-02-22T10:29:07.120Z,100889.66
2023-02-22T10:31:40.640Z,100889.16
2023-02-22T10:34:33.576Z,100890.72
2023-02-22T10:37:21.017Z,100884.28
2023-02-22T10:39:48.838Z,100881.47
2023-02-22T10:42:15.829Z,100877.47
2023-02-22T10:44:42.462Z,100880.56
2023-02-22T10:47:16.600Z,100877.66
2023-02-22T10:49:48.951Z,100871.22
2023-02-22T10:52:26.143Z,100857.31
2023-02-22T10:55:01.036Z,100861.09
2023-02-22T10:57:36.400Z,100858.59
2023-02-22T11:00:26.149Z,100855.59
2023-02-22T11:03:00.383Z,100847.53
2023-02-22T11:05:41.275Z,100838.25
2023-02-22T11:08:15.962Z,100843.56
2023-02-22T11:10:45.961Z,100840.13
2023-02-22T11:13:26.467Z,100835.59
2023-02-22T11:16:00.231Z,100825.78
2023-02-22T11:18:35.915Z,100815.63
2023-02-22T11:21:10.200Z,100821.41
2023-02-22T11:23:39.010Z,100813.78
2023-02-22T11:26:14.541Z,100823.56
2023-02-22T11:28:49.321Z,100822.19
2023-02-22T11:31:22.509Z,100812.66
2023-02-22T11:36:37.909Z,100802.97
2023-02-22T11:39:11.404Z,100796.81
2023-02-22T11:41:38.078Z,100792.28
2023-02-22T11:44:32.477Z,100794.34
2023-02-22T11:47:06.852Z,100786.59
2023-02-22T11:49:38.185Z,100781.53
2023-02-22T11:52:22.940Z,100781.94
2023-02-22T11:55:07.952Z,100776.16
2023-02-22T11:57:46.446Z,100774.06
2023-02-22T12:00:16.338Z,100774.59
2023-02-22T12:03:04.638Z,100771.81
2023-02-22T12:05:40.638Z,100769.94
2023-02-22T12:08:19.632Z,100770.25
2023-02-22T12:11:06.333Z,100762.50
2023-02-22T12:13:58.516Z,100756.38
2023-02-22T12:16:46.717Z,100756.97
2023-02-22T12:19:30.839Z,100756.94
2023-02-22T12:22:03.069Z,100751.72
2023-02-22T12:24:45.258Z,100755.31
2023-02-22T12:27:18.862Z,100754.03
2023-02-22T12:29:51.099Z,100737.28
2023-02-22T12:32:38.089Z,100734.69
2023-02-22T12:35:23.431Z,100734.75
2023-02-22T12:38:12.343Z,100719.44
2023-02-22T12:40:58.005Z,100731.28
2023-02-22T12:43:34.610Z,100732.34
2023-02-22T12:46:11.418Z,100725.13
2023-02-22T12:48:47.626Z,100724.94
2023-02-22T12:51:43.007Z,100721.41
2023-02-22T12:54:21.284Z,100714.22
2023-02-22T12:56:54.596Z,100715.13
2023-02-22T12:59:29.375Z,100719.34
2023-02-22T13:02:01.406Z,100714.19
2023-02-22T13:04:31.788Z,100713.72
2023-02-22T13:07:18.600Z,100717.81
2023-02-22T13:10:14.432Z,100715.63
2023-02-22T13:12:52.296Z,100710.34
2023-02-22T13:15:31.209Z,100713.66
2023-02-22T13:18:06.861Z,100712.44
2023-02-22T13:20:42.267Z,100715.03
2023-02-22T13:23:30.213Z,100709.56
2023-02-22T13:26:29.033Z,100710.47
2023-02-22T13:29:03.059Z,100710.34
2023-02-22T13:31:40.880Z,100710.34
2023-02-22T13:34:36.938Z,100710.03
2023-02-22T13:37:17.724Z,100700.34
2023-02-22T13:40:48.887Z,100696.44
2023-02-22T13:43:52.930Z,100696.63
2023-02-22T13:46:25.475Z,100696.88
2023-02-22T13:48:54.902Z,100700.25
2023-02-22T13:51:42.769Z,100700.63
2023-02-22T13:54:16.141Z,100704.22
2023-02-22T13:56:45.416Z,100706.84
2023-02-22T13:59:35.986Z,100702.78
2023-02-22T14:02:05.514Z,100704.53
2023-02-22T14:04:38.192Z,100697.41
2023-02-22T14:07:29.688Z,100704.63
2023-02-22T14:09:59.137Z,100703.78
2023-02-22T14:12:34.757Z,100701.53
2023-02-22T14:15:26.511Z,100705.75
2023-02-22T14:18:04.997Z,100706.97
2023-02-22T14:20:40.138Z,100696.09
2023-02-22T14:23:31.379Z,100702.25
2023-02-22T14:26:17.763Z,100706.44
2023-02-22T14:29:02.837Z,100698.34
2023-02-22T14:31:38.031Z,100701.81
2023-02-22T14:34:11.699Z,100699.34
2023-02-22T14:37:13.952Z,100698.34
2023-02-22T14:39:50.955Z,100704.03
2023-02-22T14:42:28.769Z,100697.03
2023-02-22T14:45:27.382Z,100697.66
2023-02-22T14:48:25.019Z,100708.63
2023-02-22T14:50:57.229Z,100694.75
2023-02-22T14:54:01.979Z,100694.66
2023-02-22T14:56:41.018Z,100699.00
2023-02-22T14:59:17.551Z,100693.41
2023-02-22T15:01:58.707Z,100691.06
2023-02-22T15:04:32.747Z,100698.31
2023-02-22T15:07:07.692Z,100701.81
2023-02-22T15:09:37.499Z,100700.94
2023-02-22T15:12:04.049Z,100694.88
2023-02-22T15:14:39.078Z,100699.44
2023-02-22T15:17:17.168Z,100691.28
2023-02-22T15:19:44.008Z,100696.53
2023-02-22T15:22:25.306Z,100690.47
2023-02-22T15:25:05.148Z,100693.66
2023-02-22T15:27:36.857Z,100696.06
2023-02-22T15:30:20.139Z,100694.81
2023-02-22T15:33:02.636Z,100697.81
2023-02-22T15:35:33.380Z,100708.41
2023-02-22T15:38:12.175Z,100706.59
2023-02-22T15:40:43.103Z,100703.50
2023-02-22T15:43:24.883Z,100700.25
2023-02-22T15:45:52.105Z,100703.94
2023-02-22T15:48:19.221Z,100708.06
2023-02-22T15:51:07.273Z,100708.22
2023-02-22T15:53:43.821Z,100719.28
2023-02-22T15:56:39.581Z,100719.72
2023-02-22T15:59:13.576Z,100719.22
2023-02-22T16:01:43.446Z,100718.41
2023-02-22T16:04:24.494Z,100711.94
2023-02-22T16:07:01.006Z,100709.16
2023-02-22T16:09:30.266Z,100717.25
2023-02-22T16:12:21.921Z,100717.44
2023-02-22T16:14:49.041Z,100712.97
2023-02-22T16:17:24.739Z,100716.88
2023-02-22T16:19:52.566Z,100714.69
2023-02-22T16:22:28.009Z,100717.06
2023-02-22T16:25:16.207Z,100717.78
2023-02-22T16:27:47.780Z,100720.31
2023-02-22T16:30:29.439Z,100719.13
2023-02-22T16:32:57.320Z,100721.88
2023-02-22T16:35:32.611Z,100716.50
2023-02-22T16:38:04.919Z,100729.03
2023-02-22T16:40:36.188Z,100728.22
2023-02-22T16:43:06.491Z,100725.94
2023-02-22T16:45:33.101Z,100733.13
2023-02-22T16:48:00.409Z,100730.84
2023-02-22T16:50:27.067Z,100731.00
2023-02-22T16:52:55.690Z,100726.66
2023-02-22T16:55:22.642Z,100729.91
2023-02-22T16:57:50.513Z,100734.41
2023-02-22T17:00:31.002Z,100737.69
2023-02-22T17:03:05.525Z,100742.19
2023-02-22T17:05:36.229Z,100737.97
2023-02-22T17:08:04.208Z,100739.91
2023-02-22T17:10:30.777Z,100734.66
2023-02-22T17:12:58.529Z,100733.53
2023-02-22T17:15:28.154Z,100740.47
2023-02-22T17:17:56.251Z,100745.22
2023-02-22T17:20:32.708Z,100745.22
2023-02-22T17:23:05.008Z,100739.28
2023-02-22T17:25:41.942Z,100746.50
2023-02-22T17:28:09.132Z,100743.78
2023-02-22T17:30:36.625Z,100744.63
2023-02-22T17:33:06.446Z,100756.66
2023-02-22T17:35:37.185Z,100754.44
2023-02-22T17:38:06.142Z,100756.03
2023-02-22T17:40:35.083Z,100761.16
2023-02-22T17:43:01.901Z,100760.38
2023-02-22T17:45:29.947Z,100760.50
2023-02-22T17:47:59.035Z,100768.13
2023-02-22T17:50:27.005Z,100765.91
2023-02-22T17:52:53.831Z,100769.94
2023-02-22T17:55:21.445Z,100770.06
2023-02-22T17:57:53.131Z,100772.38
2023-02-22T18:00:23.574Z,100766.09
2023-02-22T18:02:51.493Z,100777.22
2023-02-22T18:05:19.039Z,100783.13
2023-02-22T18:07:46.914Z,100782.06
2023-02-22T18:10:13.735Z,100784.47
2023-02-22T18:12:41.418Z,100787.97
2023-02-22T18:15:10.763Z,100783.81
2023-02-22T18:17:38.102Z,100785.00
2023-02-22T18:20:11.631Z,100775.97
2023-02-22T18:22:42.091Z,100776.72
2023-02-22T18:25:10.647Z,100783.53
2023-02-22T18:27:37.595Z,100784.78
2023-02-22T18:30:05.985Z,100777.03
2023-02-22T18:32:33.534Z,100778.28
2023-02-22T18:35:00.677Z,100784.22
2023-02-22T18:37:29.944Z,100785.91
2023-02-22T18:39:57.759Z,100785.50
2023-02-22T18:42:28.497Z,100788.44
2023-02-22T18:45:00.579Z,100790.75
2023-02-22T18:47:27.420Z,100791.25
2023-02-22T18:49:54.165Z,100788.63
2023-02-22T18:52:21.075Z,100779.56
2023-02-22T18:54:49.924Z,100789.44
2023-02-22T18:57:16.991Z,100792.25
2023-02-22T18:59:44.038Z,100791.88
2023-02-22T19:02:14.053Z,100782.75
2023-02-22T19:04:40.942Z,100794.28
2023-02-22T19:07:07.402Z,100799.84
2023-02-22T19:09:33.873Z,100797.97
2023-02-22T19:12:00.411Z,100793.56
2023-02-22T19:14:26.906Z,100797.59
2023-02-22T19:16:56.473Z,100796.06
2023-02-22T19:19:26.070Z,100801.16
2023-02-22T19:21:53.098Z,100800.78
2023-02-22T19:24:20.400Z,100811.59
2023-02-22T19:26:57.228Z,100805.34
2023-02-22T19:29:23.947Z,100796.72
2023-02-22T19:31:51.682Z,100808.97
2023-02-22T19:34:21.802Z,100814.56
2023-02-22T19:36:49.008Z,100812.59
2023-02-22T19:39:17.532Z,100815.81
2023-02-22T19:41:44.292Z,100819.41
2023-02-22T19:44:12.171Z,100819.13
2023-02-22T19:46:39.573Z,100817.97
2023-02-22T19:49:07.286Z,100825.91
2023-02-22T19:51:34.251Z,100837.91
2023-02-22T19:54:06.506Z,100830.41
2023-02-22T19:56:35.486Z,100834.75
2023-02-22T19:59:13.365Z,100836.75
2023-02-22T20:01:41.303Z,100843.50
2023-02-22T20:04:10.445Z,100852.25
2023-02-22T20:06:42.486Z,100843.97
2023-02-22T20:09:12.867Z,100856.25
2023-02-22T20:11:39.439Z,100845.59
2023-02-22T20:14:06.416Z,100846.75
2023-02-22T20:16:34.638Z,100851.53
2023-02-22T20:19:01.298Z,100849.50
2023-02-22T20:21:32.593Z,100853.09
2023-02-22T20:24:03.145Z,100849.91
2023-02-22T20:26:32.174Z,100857.47
2023-02-22T20:28:59.541Z,100854.69
2023-02-22T20:31:26.987Z,100858.28
2023-02-22T20:33:55.640Z,100864.66
2023-02-22T20:36:22.484Z,100864.66
2023-02-22T20:38:53.918Z,100855.56
2023-02-22T20:41:29.381Z,100852.81
2023-02-22T20:43:56.865Z,100853.16
2023-02-22T20:46:24.932Z,100862.28
2023-02-22T20:48:55.955Z,100862.72
2023-02-22T20:51:23.291Z,100854.81
2023-02-22T20:53:50.207Z,100857.19
2023-02-22T20:56:24.154Z,100856.78
2023-02-22T20:58:51.084Z,100846.94
2023-02-22T21:01:20.177Z,100856.44
2023-02-22T21:03:46.985Z,100861.19
2023-02-22T21:06:15.835Z,100860.81
2023-02-22T21:08:49.259Z,100860.03
2023-02-22T21:11:17.733Z,100865.97
2023-02-22T21:13:44.388Z,100863.63
2023-02-22T21:16:18.718Z,100863.19
2023-02-22T21:18:45.406Z,100869.56
2023-02-22T21:21:12.554Z,100866.78
2023-02-22T21:23:40.546Z,100867.56
2023-02-22T21:26:13.324Z,100871.09
2023-02-22T21:28:50.818Z,100873.47
2023-02-22T21:31:18.867Z,100863.19
2023-02-22T21:33:49.339Z,100865.16
2023-02-22T21:36:16.311Z,100870.72
2023-02-22T21:38:45.253Z,100872.72
2023-02-22T21:41:13.029Z,100864.81
2023-02-22T21:43:40.081Z,100873.53
2023-02-22T21:46:10.585Z,100863.22
2023-02-22T21:48:45.097Z,100870.75
2023-02-22T21:51:14.083Z,100866.78
2023-02-22T21:53:48.510Z,100863.63
2023-02-22T21:56:18.886Z,100869.59
2023-02-22T21:58:47.071Z,100871.16
2023-02-22T22:01:17.390Z,100870.78
2023-02-22T22:03:46.048Z,100870.34
2023-02-22T22:06:14.045Z,100875.91
2023-02-22T22:08:42.850Z,100867.22
2023-02-22T22:11:11.213Z,100859.28
2023-02-22T22:13:40.387Z,100860.06
2023-02-22T22:16:12.197Z,100865.22
2023-02-22T22:18:40.030Z,100852.56
2023-02-22T22:21:22.676Z,100864.00
2023-02-22T22:23:50.744Z,100861.25
2023-02-22T22:26:19.944Z,100870.00
2023-02-22T22:28:52.592Z,100864.44
2023-02-22T22:31:21.446Z,100861.28
2023-02-22T22:33:48.175Z,100860.50
2023-02-22T22:36:17.095Z,100861.69
2023-02-22T22:38:47.101Z,100866.44
2023-02-22T22:41:16.638Z,100865.66
2023-02-22T22:43:46.237Z,100869.66
2023-02-22T22:46:15.376Z,100874.38
2023-02-22T22:48:42.897Z,100875.56
2023-02-22T22:51:12.478Z,100868.44
2023-02-22T22:53:43.407Z,100879.50
2023-02-22T22:56:25.941Z,100874.78
2023-02-22T22:58:55.337Z,100870.84
2023-02-22T23:01:27.922Z,100878.75
2023-02-22T23:04:02.094Z,100873.22
2023-02-22T23:06:32.947Z,100876.00
2023-02-22T23:09:01.532Z,100882.31
2023-02-22T23:11:30.147Z,100870.06
2023-02-22T23:13:56.736Z,100880.72
2023-02-22T23:16:24.273Z,100881.94
2023-02-22T23:18:51.438Z,100885.06
2023-02-22T23:21:19.791Z,100872.81
2023-02-22T23:23:51.498Z,100877.16
2023-02-22T23:26:18.176Z,100879.56
2023-02-22T23:28:47.138Z,100879.56
2023-02-22T23:31:16.971Z,100880.31
2023-02-22T23:33:48.134Z,100881.13
2023-02-22T23:36:16.511Z,100882.72
2023-02-22T23:38:43.779Z,100882.72
2023-02-22T23:41:12.933Z,100883.91
2023-02-22T23:43:40.681Z,100887.84
2023-02-22T23:46:12.989Z,100889.84
2023-02-22T23:48:46.682Z,100889.03
2023-02-22T23:51:16.163Z,100894.56
2023-02-22T23:53:55.461Z,100881.53
2023-02-22T23:56:28.511Z,100893.78
2023-02-22T23:58:57.442Z,100896.16
